Time,TemperatureF,DewpointF,PressureIn,WindDirection,WindDirectionDegrees,WindSpeedMPH,WindSpeedGustMPH,Humidity,HourlyPrecipIn,Conditions,Clouds,dailyrainin,SoftwareType,DateUTC
2013-05-20 00:03:00,66.9,66.0,29.99,East,88,0.0,-999.0,96,-99.99,,,0.33,weatherlink.com 1.10,2013-05-20 04:03:00,
2013-05-20 00:18:00,66.9,-99.9,29.99,East,88,0.0,-999.0,-999,-99.99,,,0.33,weatherlink.com 1.10,2013-05-20 04:18:00,
2013-05-20 00:33:00,66.8,66.0,29.98,East,88,0.0,-999.0,97,-99.99,,,0.33,weatherlink.com 1.10,2013-05-20 04:33:00,
2013-05-20 00:48:00,67.1,66.0,29.98,East,88,0.0,-999.0,97,-99.99,,,0.33,weatherlink.com 1.10,2013-05-20 04:48:00,
2013-05-20 01:03:00,67.3,67.0,29.98,East,88,0.0,-999.0,97,-99.99,,,0.00,weatherlink.com 1.10,2013-05-20 05:03:00,
2013-05-20 01:18:00,67.4,67.0,29.98,East,88,0.0,-999.0,97,-99.99,,,0.00,weatherlink.com 1.10,2013-05-20 05:18:00,
2013-05-20 01:33:00,67.6,67.0,29.98,ENE,71,0.0,-999.0,97,-99.99,,,0.00,weatherlink.com 1.10,2013-05-20 05:33:00,
2013-05-20 01:48:00,67.6,67.0,29.97,East,80,0.0,-999.0,97,-99.99,,,0.00,weatherlink.com 1.10,2013-05-20 05:48:00,
2013-05-20 02:03:00,67.8,67.0,29.97,East,80,0.0,-999.0,97,-99.99,,,0.00,weatherlink.com 1.10,2013-05-20 06:03:00,
2013-05-20 02:18:00,67.8,67.0,29.97,ENE,76,1.0,-999.0,97,-99.99,,,0.00,weatherlink.com 1.10,2013-05-20 06:18:00,
2013-05-20 02:33:00,67.8,67.0,29.97,ENE,75,0.0,-999.0,97,-99.99,,,0.00,weatherlink.com 1.10,2013-05-20 06:33:00,
2013-05-20 02:48:00,67.6,67.0,29.97,ENE,66,0.0,-999.0,97,-99.99,,,0.00,weatherlink.com 1.10,2013-05-20 06:48:00,
2013-05-20 03:03:00,67.6,67.0,29.96,ENE,68,0.0,-999.0,97,-99.99,,,0.00,weatherlink.com 1.10,2013-05-20 07:03:00,
2013-05-20 03:18:00,67.6,67.0,29.96,ENE,71,0.0,-999.0,97,-99.99,,,0.00,weatherlink.com 1.10,2013-05-20 07:18:00,
2013-05-20 03:33:00,67.4,67.0,29.95,ENE,71,0.0,-999.0,97,-99.99,,,0.00,weatherlink.com 1.10,2013-05-20 07:33:00,
2013-05-20 03:48:00,67.4,67.0,29.95,ENE,71,0.0,-999.0,97,-99.99,,,0.00,weatherlink.com 1.10,2013-05-20 07:48:00,
2013-05-20 04:03:00,67.4,67.0,29.96,ENE,71,0.0,-999.0,97,-99.99,,,0.00,weatherlink.com 1.10,2013-05-20 08:03:00,
2013-05-20 04:18:00,67.6,67.0,29.95,ENE,71,0.0,-999.0,98,-99.99,,,0.00,weatherlink.com 1.10,2013-05-20 08:18:00,
2013-05-20 04:33:00,67.8,67.0,29.95,ENE,71,0.0,-999.0,98,-99.99,,,0.01,weatherlink.com 1.10,2013-05-20 08:33:00,
2013-05-20 04:48:00,68.1,68.0,29.95,ENE,64,0.0,-999.0,98,-99.99,,,0.02,weatherlink.com 1.10,2013-05-20 08:48:00,
2013-05-20 05:03:00,68.3,68.0,29.95,ENE,64,0.0,-999.0,98,-99.99,,,0.02,weatherlink.com 1.10,2013-05-20 09:03:00,
2013-05-20 05:18:00,68.3,68.0,29.96,ENE,73,0.0,-999.0,98,-99.99,,,0.02,weatherlink.com 1.10,2013-05-20 09:18:00,
2013-05-20 05:33:00,68.4,68.0,29.96,ENE,73,0.0,-999.0,98,-99.99,,,0.02,weatherlink.com 1.10,2013-05-20 09:33:00,
2013-05-20 05:48:00,68.4,68.0,29.96,ENE,75,0.0,-999.0,98,-99.99,,,0.03,weatherlink.com 1.10,2013-05-20 09:48:00,
2013-05-20 06:03:00,68.3,68.0,29.97,SSE,158,0.0,-999.0,98,-99.99,,,0.05,weatherlink.com 1.10,2013-05-20 10:03:00,
2013-05-20 06:18:00,68.3,68.0,29.97,SSE,158,0.0,-999.0,98,-99.99,,,0.05,weatherlink.com 1.10,2013-05-20 10:18:00,
2013-05-20 06:33:00,67.9,67.0,29.97,SE,131,0.0,-999.0,98,-99.99,,,0.05,weatherlink.com 1.10,2013-05-20 10:33:00,
2013-05-20 06:48:00,67.6,67.0,29.98,ESE,116,0.0,-999.0,98,-99.99,,,0.05,weatherlink.com 1.10,2013-05-20 10:48:00,
2013-05-20 07:03:00,67.6,67.0,29.98,ESE,102,0.0,-999.0,98,-99.99,,,0.05,weatherlink.com 1.10,2013-05-20 11:03:00,
2013-05-20 07:18:00,67.6,67.0,29.99,WSW,253,0.0,-999.0,98,-99.99,,,0.06,weatherlink.com 1.10,2013-05-20 11:18:00,
2013-05-20 07:33:00,67.8,67.0,29.99,West,267,0.0,-999.0,98,-99.99,,,0.06,weatherlink.com 1.10,2013-05-20 11:33:00,
2013-05-20 07:48:00,67.8,67.0,29.99,WSW,251,0.0,-999.0,98,-99.99,,,0.07,weatherlink.com 1.10,2013-05-20 11:48:00,
2013-05-20 08:03:00,68.1,68.0,29.99,WSW,251,0.0,-999.0,98,-99.99,,,0.07,weatherlink.com 1.10,2013-05-20 12:03:00,
2013-05-20 08:18:00,68.3,68.0,30.00,WSW,251,0.0,-999.0,98,-99.99,,,0.07,weatherlink.com 1.10,2013-05-20 12:18:00,
2013-05-20 08:33:00,68.3,68.0,30.00,East,96,0.0,-999.0,98,-99.99,,,0.07,weatherlink.com 1.10,2013-05-20 12:33:00,
2013-05-20 08:49:00,68.4,68.0,30.00,East,96,0.0,-999.0,98,-99.99,,,0.07,weatherlink.com 1.10,2013-05-20 12:49:00,
2013-05-20 09:04:00,68.6,68.0,30.00,ENE,78,0.0,-999.0,98,-99.99,,,0.07,weatherlink.com 1.10,2013-05-20 13:04:00,
2013-05-20 09:19:00,68.8,68.0,30.00,ENE,73,0.0,-999.0,98,-99.99,,,0.07,weatherlink.com 1.10,2013-05-20 13:19:00,
2013-05-20 09:34:00,69.1,69.0,30.00,ENE,71,0.0,-999.0,98,-99.99,,,0.07,weatherlink.com 1.10,2013-05-20 13:34:00,
2013-05-20 09:49:00,69.1,69.0,30.00,ENE,65,0.0,-999.0,98,-99.99,,,0.07,weatherlink.com 1.10,2013-05-20 13:49:00,
2013-05-20 10:04:00,69.3,69.0,30.00,East,86,0.0,-999.0,98,-99.99,,,0.07,weatherlink.com 1.10,2013-05-20 14:04:00,
2013-05-20 10:19:00,69.4,69.0,29.99,ENE,58,0.0,-999.0,98,-99.99,,,0.07,weatherlink.com 1.10,2013-05-20 14:19:00,
2013-05-20 10:34:00,69.8,69.0,29.99,ENE,72,0.0,-999.0,98,-99.99,,,0.07,weatherlink.com 1.10,2013-05-20 14:34:00,
2013-05-20 10:49:00,69.8,69.0,29.99,East,79,0.0,-999.0,97,-99.99,,,0.08,weatherlink.com 1.10,2013-05-20 14:49:00,
2013-05-20 11:04:00,69.9,69.0,29.99,ENE,66,0.0,-999.0,97,-99.99,,,0.08,weatherlink.com 1.10,2013-05-20 15:04:00,
2013-05-20 11:19:00,69.8,69.0,30.00,NE,42,0.0,-999.0,96,-99.99,,,0.08,weatherlink.com 1.10,2013-05-20 15:19:00,
2013-05-20 11:34:00,70.4,69.0,29.99,East,92,0.0,-999.0,96,-99.99,,,0.08,weatherlink.com 1.10,2013-05-20 15:34:00,
2013-05-20 11:49:00,71.1,70.0,29.99,ESE,104,3.0,-999.0,96,-99.99,,,0.08,weatherlink.com 1.10,2013-05-20 15:49:00,
2013-05-20 12:04:00,72.3,70.0,29.98,SE,126,0.0,-999.0,93,-99.99,,,0.08,weatherlink.com 1.10,2013-05-20 16:04:00,
2013-05-20 12:19:00,72.0,68.0,29.98,SSE,155,3.0,-999.0,87,-99.99,,,0.08,weatherlink.com 1.10,2013-05-20 16:19:00,
2013-05-20 12:34:00,72.1,69.0,29.98,ESE,107,0.0,-999.0,90,-99.99,,,0.08,weatherlink.com 1.10,2013-05-20 16:34:00,
2013-05-20 12:49:00,72.7,69.0,29.97,SE,144,2.0,-999.0,88,-99.99,,,0.08,weatherlink.com 1.10,2013-05-20 16:49:00,
2013-05-20 13:04:00,74.2,70.0,29.96,ENE,66,1.0,-999.0,86,-99.99,,,0.08,weatherlink.com 1.10,2013-05-20 17:04:00,
2013-05-20 13:19:00,75.3,70.0,29.96,SE,126,0.0,-999.0,82,-99.99,,,0.08,weatherlink.com 1.10,2013-05-20 17:19:00,
2013-05-20 13:34:00,74.4,69.0,29.95,ENE,78,0.0,-999.0,84,-99.99,,,0.08,weatherlink.com 1.10,2013-05-20 17:34:00,
2013-05-20 13:49:00,74.2,70.0,29.95,ENE,73,0.0,-999.0,85,-99.99,,,0.08,weatherlink.com 1.10,2013-05-20 17:49:00,
2013-05-20 14:04:00,73.9,70.0,29.95,ENE,78,0.0,-999.0,87,-99.99,,,0.08,weatherlink.com 1.10,2013-05-20 18:04:00,
2013-05-20 14:19:00,73.5,71.0,29.95,East,88,0.0,-999.0,90,-99.99,,,0.11,weatherlink.com 1.10,2013-05-20 18:19:00,
2013-05-20 14:34:00,73.5,71.0,29.95,East,80,0.0,-999.0,90,-99.99,,,0.13,weatherlink.com 1.10,2013-05-20 18:34:00,
2013-05-20 14:49:00,73.9,71.0,29.95,ESE,102,0.0,-999.0,90,-99.99,,,0.13,weatherlink.com 1.10,2013-05-20 18:49:00,
2013-05-20 15:04:00,74.2,72.0,29.95,ESE,113,0.0,-999.0,91,-99.99,,,0.13,weatherlink.com 1.10,2013-05-20 19:04:00,
2013-05-20 15:19:00,74.0,71.0,29.94,West,268,0.0,-999.0,90,-99.99,,,0.13,weatherlink.com 1.10,2013-05-20 19:19:00,
2013-05-20 15:34:00,73.7,71.0,29.93,West,261,0.0,-999.0,91,-99.99,,,0.13,weatherlink.com 1.10,2013-05-20 19:34:00,
2013-05-20 15:49:00,71.5,68.0,29.94,East,95,1.0,-999.0,89,-99.99,,,0.15,weatherlink.com 1.10,2013-05-20 19:49:00,
2013-05-20 16:04:00,70.1,67.0,29.94,East,89,0.0,-999.0,91,-99.99,,,0.16,weatherlink.com 1.10,2013-05-20 20:04:00,
2013-05-20 16:19:00,69.9,68.0,29.94,East,89,0.0,-999.0,92,-99.99,,,0.17,weatherlink.com 1.10,2013-05-20 20:19:00,
2013-05-20 16:34:00,69.8,68.0,29.93,East,100,0.0,-999.0,93,-99.99,,,0.17,weatherlink.com 1.10,2013-05-20 20:34:00,
2013-05-20 16:49:00,70.4,69.0,29.93,East,100,0.0,-999.0,94,-99.99,,,0.18,weatherlink.com 1.10,2013-05-20 20:49:00,
2013-05-20 17:04:00,70.6,69.0,29.93,East,100,0.0,-999.0,94,-99.99,,,0.18,weatherlink.com 1.10,2013-05-20 21:04:00,
2013-05-20 17:19:00,70.8,69.0,29.93,ESE,102,0.0,-999.0,95,-99.99,,,0.18,weatherlink.com 1.10,2013-05-20 21:19:00,
2013-05-20 17:34:00,71.3,70.0,29.92,ESE,102,0.0,-999.0,95,-99.99,,,0.18,weatherlink.com 1.10,2013-05-20 21:34:00,
2013-05-20 17:49:00,71.8,70.0,29.92,East,100,0.0,-999.0,95,-99.99,,,0.18,weatherlink.com 1.10,2013-05-20 21:49:00,
2013-05-20 18:04:00,72.1,70.0,29.92,ESE,102,0.0,-999.0,94,-99.99,,,0.18,weatherlink.com 1.10,2013-05-20 22:04:00,
2013-05-20 18:19:00,72.5,70.0,29.93,ESE,102,0.0,-999.0,93,-99.99,,,0.18,weatherlink.com 1.10,2013-05-20 22:19:00,
2013-05-20 18:34:00,73.3,71.0,29.92,East,100,0.0,-999.0,92,-99.99,,,0.18,weatherlink.com 1.10,2013-05-20 22:34:00,
2013-05-20 18:49:00,73.3,71.0,29.92,East,100,0.0,-999.0,91,-99.99,,,0.18,weatherlink.com 1.10,2013-05-20 22:49:00,
2013-05-20 19:04:00,73.9,71.0,29.92,East,100,0.0,-999.0,91,-99.99,,,0.18,weatherlink.com 1.10,2013-05-20 23:04:00,
2013-05-20 19:19:00,74.0,71.0,29.92,East,100,0.0,-999.0,90,-99.99,,,0.18,weatherlink.com 1.10,2013-05-20 23:19:00,
2013-05-20 19:34:00,73.2,71.0,29.91,East,100,0.0,-999.0,91,-99.99,,,0.18,weatherlink.com 1.10,2013-05-20 23:34:00,
2013-05-20 19:49:00,72.3,70.0,29.91,East,100,0.0,-999.0,92,-99.99,,,0.18,weatherlink.com 1.10,2013-05-20 23:49:00,
2013-05-20 20:04:00,71.5,69.0,29.92,East,97,0.0,-999.0,92,-99.99,,,0.18,weatherlink.com 1.10,2013-05-21 00:04:00,
2013-05-20 20:19:00,70.9,69.0,29.93,East,97,0.0,-999.0,92,-99.99,,,0.18,weatherlink.com 1.10,2013-05-21 00:19:00,
2013-05-20 20:34:00,70.6,69.0,29.93,East,97,0.0,-999.0,93,-99.99,,,0.18,weatherlink.com 1.10,2013-05-21 00:34:00,
2013-05-20 20:49:00,70.4,69.0,29.93,East,93,0.0,-999.0,94,-99.99,,,0.18,weatherlink.com 1.10,2013-05-21 00:49:00,
2013-05-20 21:04:00,70.3,69.0,29.93,East,93,0.0,-999.0,94,-99.99,,,0.18,weatherlink.com 1.10,2013-05-21 01:04:00,
2013-05-20 21:19:00,70.3,69.0,29.93,East,93,0.0,-999.0,95,-99.99,,,0.18,weatherlink.com 1.10,2013-05-21 01:19:00,
2013-05-20 21:34:00,69.9,69.0,29.93,East,93,0.0,-999.0,95,-99.99,,,0.18,weatherlink.com 1.10,2013-05-21 01:34:00,
2013-05-20 21:49:00,69.8,68.0,29.93,East,93,0.0,-999.0,95,-99.99,,,0.18,weatherlink.com 1.10,2013-05-21 01:49:00,
2013-05-20 22:04:00,69.4,68.0,29.93,East,93,0.0,-999.0,95,-99.99,,,0.18,weatherlink.com 1.10,2013-05-21 02:04:00,
2013-05-20 22:19:00,69.1,68.0,29.93,East,93,0.0,-999.0,96,-99.99,,,0.18,weatherlink.com 1.10,2013-05-21 02:19:00,
2013-05-20 22:34:00,68.9,68.0,29.93,East,93,0.0,-999.0,96,-99.99,,,0.18,weatherlink.com 1.10,2013-05-21 02:34:00,
2013-05-20 22:49:00,68.8,68.0,29.93,East,93,0.0,-999.0,96,-99.99,,,0.18,weatherlink.com 1.10,2013-05-21 02:49:00,
2013-05-20 23:04:00,68.4,67.0,29.93,East,93,0.0,-999.0,96,-99.99,,,0.18,weatherlink.com 1.10,2013-05-21 03:04:00,
2013-05-20 23:19:00,68.4,67.0,29.92,East,93,0.0,-999.0,96,-99.99,,,0.18,weatherlink.com 1.10,2013-05-21 03:19:00,
2013-05-20 23:34:00,68.6,68.0,29.92,East,93,0.0,-999.0,96,-99.99,,,0.18,weatherlink.com 1.10,2013-05-21 03:34:00,
2013-05-20 23:49:00,68.6,68.0,29.92,East,93,0.0,-999.0,96,-99.99,,,0.18,weatherlink.com 1.10,2013-05-21 03:49:00,